createdAt,value
2023-05-13T00:00:24.754Z,50.13
2023-05-13T00:05:27.214Z,50.35
2023-05-13T00:10:29.734Z,50.53
2023-05-13T00:15:32.093Z,50.18
2023-05-13T00:20:34.552Z,50.22
2023-05-13T00:25:38.464Z,50.35
2023-05-13T00:30:44.820Z,50.25
2023-05-13T00:35:47.312Z,50.26
2023-05-13T00:40:50.476Z,50.25
2023-05-13T00:45:53.022Z,50.12
2023-05-13T00:50:55.942Z,50.21
2023-05-13T00:55:58.325Z,50.51
2023-05-13T01:01:07.186Z,51.27
2023-05-13T01:06:15.010Z,51.20
2023-05-13T01:11:39.574Z,51.88
2023-05-13T01:17:08.878Z,52.65
2023-05-13T01:22:11.676Z,52.17
2023-05-13T01:27:14.711Z,52.58
2023-05-13T01:32:17.407Z,52.59
2023-05-13T01:37:21.438Z,53.21
2023-05-13T01:42:25.005Z,53.11
2023-05-13T01:47:29.079Z,53.03
2023-05-13T01:52:32.903Z,53.05
2023-05-13T01:57:35.597Z,52.84
2023-05-13T02:02:38.374Z,52.90
2023-05-13T02:07:40.843Z,53.02
2023-05-13T02:12:45.486Z,53.37
2023-05-13T02:17:48.082Z,53.34
2023-05-13T02:22:50.774Z,53.62
2023-05-13T02:27:53.231Z,53.51
2023-05-13T02:32:57.182Z,53.79
2023-05-13T02:37:59.649Z,53.83
2023-05-13T02:43:04.009Z,53.93
2023-05-13T02:48:20.211Z,54.19
2023-05-13T02:53:23.561Z,54.01
2023-05-13T02:58:30.810Z,53.92
2023-05-13T03:03:34.790Z,54.03
2023-05-13T03:08:37.546Z,54.13
2023-05-13T03:13:39.905Z,54.27
2023-05-13T03:18:42.520Z,53.81
2023-05-13T03:23:45.260Z,53.62
2023-05-13T03:28:47.827Z,53.89
2023-05-13T03:33:51.147Z,53.33
2023-05-13T03:38:53.664Z,53.12
2023-05-13T03:43:56.194Z,53.06
2023-05-13T03:48:58.775Z,52.86
2023-05-13T03:54:04.117Z,52.59
2023-05-13T03:59:06.979Z,52.26
2023-05-13T04:04:11.546Z,51.21
2023-05-13T04:09:13.940Z,50.21
2023-05-13T04:14:18.420Z,50.03
2023-05-13T04:19:20.857Z,49.24
2023-05-13T04:24:23.208Z,47.86
2023-05-13T04:29:25.819Z,47.38
2023-05-13T04:34:28.387Z,46.85
2023-05-13T04:39:31.348Z,46.34
2023-05-13T04:44:35.395Z,45.97
2023-05-13T04:49:37.910Z,44.97
2023-05-13T04:54:42.897Z,44.28
2023-05-13T04:59:46.209Z,43.73
2023-05-13T05:04:49.867Z,42.69
2023-05-13T05:09:53.457Z,41.70
2023-05-13T05:14:56.823Z,40.45
2023-05-13T05:20:00.182Z,40.35
2023-05-13T05:25:03.940Z,40.72
2023-05-13T05:30:07.376Z,39.51
2023-05-13T05:35:11.532Z,39.78
2023-05-13T05:40:14.409Z,39.00
2023-05-13T05:45:17.143Z,37.99
2023-05-13T05:50:21.138Z,37.70
2023-05-13T05:55:23.960Z,37.38
2023-05-13T06:00:27.816Z,36.22
2023-05-13T06:05:31.029Z,36.08
2023-05-13T06:10:33.408Z,35.18
2023-05-13T06:15:37.079Z,34.60
2023-05-13T06:20:40.378Z,35.14
2023-05-13T06:25:42.912Z,35.35
2023-05-13T06:30:46.287Z,34.65
2023-05-13T06:35:50.288Z,34.62
2023-05-13T06:40:56.378Z,34.90
2023-05-13T06:46:05.616Z,34.35
2023-05-13T06:51:08.234Z,34.22
2023-05-13T06:56:10.614Z,33.32
2023-05-13T07:01:13.174Z,32.94
2023-05-13T07:06:15.805Z,32.53
2023-05-13T07:11:18.707Z,32.63
2023-05-13T07:16:21.597Z,32.51
2023-05-13T07:21:24.249Z,31.82
2023-05-13T07:26:26.853Z,31.62
2023-05-13T07:31:30.922Z,31.56
2023-05-13T07:36:33.524Z,31.12
2023-05-13T07:41:36.966Z,30.72
2023-05-13T07:46:42.605Z,30.28
2023-05-13T07:51:45.056Z,30.47
2023-05-13T07:56:48.406Z,29.59
2023-05-13T08:01:51.949Z,29.90
2023-05-13T08:06:54.476Z,28.42
2023-05-13T08:11:57.257Z,28.49
2023-05-13T08:16:59.772Z,27.87
2023-05-13T08:22:02.276Z,27.81
2023-05-13T08:27:06.042Z,27.68
2023-05-13T08:32:08.580Z,28.30
2023-05-13T08:37:11.035Z,27.79
2023-05-13T08:42:15.533Z,27.48
2023-05-13T08:47:36.831Z,28.50
2023-05-13T08:52:40.477Z,27.72
2023-05-13T08:57:43.123Z,28.40
2023-05-13T09:02:45.941Z,27.38
2023-05-13T09:07:48.527Z,27.46
2023-05-13T09:12:55.549Z,27.37
2023-05-13T09:18:05.102Z,26.29
2023-05-13T09:23:11.878Z,26.88
2023-05-13T09:28:15.293Z,26.31
2023-05-13T09:33:22.106Z,26.11
2023-05-13T09:38:29.695Z,25.37
2023-05-13T09:43:33.413Z,25.80
2023-05-13T09:48:38.387Z,26.15
2023-05-13T09:53:41.664Z,26.61
2023-05-13T09:58:52.302Z,25.54
2023-05-13T10:03:56.732Z,25.24
2023-05-13T10:09:03.624Z,26.00
2023-05-13T10:14:07.189Z,25.51
2023-05-13T10:19:10.762Z,25.75
2023-05-13T10:24:14.017Z,26.00
2023-05-13T10:29:17.441Z,25.21
2023-05-13T10:34:19.895Z,25.73
2023-05-13T10:39:36.167Z,25.71
2023-05-13T10:44:38.576Z,25.19
2023-05-13T10:49:41.124Z,25.31
2023-05-13T10:54:43.518Z,25.78
2023-05-13T11:00:16.428Z,25.51
2023-05-13T11:05:22.386Z,24.59
2023-05-13T11:10:32.256Z,24.51
2023-05-13T11:15:51.198Z,23.61
2023-05-13T11:20:54.283Z,24.75
2023-05-13T11:26:19.312Z,24.19
2023-05-13T11:31:24.106Z,23.99
2023-05-13T11:36:31.301Z,23.91
2023-05-13T11:41:34.721Z,22.93
2023-05-13T11:46:37.625Z,23.17
2023-05-13T11:51:40.465Z,23.62
2023-05-13T11:56:43.602Z,23.95
2023-05-13T12:01:46.245Z,23.91
2023-05-13T12:06:49.474Z,24.50
2023-05-13T12:11:53.165Z,23.69
2023-05-13T12:16:56.880Z,22.71
2023-05-13T12:22:00.133Z,23.20
2023-05-13T12:27:09.437Z,22.39
2023-05-13T12:32:17.365Z,22.58
2023-05-13T12:37:19.827Z,22.62
2023-05-13T12:42:22.618Z,23.45
2023-05-13T12:47:25.302Z,22.63
2023-05-13T12:52:27.859Z,22.29
2023-05-13T12:57:32.241Z,23.05
2023-05-13T13:02:34.954Z,23.16
2023-05-13T13:07:38.489Z,22.44
2023-05-13T13:12:41.032Z,23.27
2023-05-13T13:17:48.392Z,22.98
2023-05-13T13:22:50.859Z,23.15
2023-05-13T13:27:53.193Z,23.84
2023-05-13T13:32:55.814Z,23.40
2023-05-13T13:37:58.258Z,22.54
2023-05-13T13:43:00.754Z,23.31
2023-05-13T13:48:03.337Z,23.15
2023-05-13T13:53:06.032Z,23.32
2023-05-13T13:58:08.535Z,23.61
2023-05-13T14:03:11.289Z,23.66
2023-05-13T14:08:13.966Z,24.16
2023-05-13T14:13:16.666Z,23.67
2023-05-13T14:18:19.040Z,23.79
2023-05-13T14:23:21.609Z,23.96
2023-05-13T14:28:25.105Z,23.88
2023-05-13T14:33:27.788Z,24.08
2023-05-13T14:38:30.247Z,24.16
2023-05-13T14:43:32.703Z,24.46
2023-05-13T14:48:35.155Z,24.33
2023-05-13T14:53:37.657Z,24.70
2023-05-13T14:58:40.036Z,24.83
2023-05-13T15:03:43.587Z,25.48
2023-05-13T15:08:46.210Z,25.44
2023-05-13T15:13:48.749Z,25.45
2023-05-13T15:18:51.404Z,25.82
2023-05-13T15:23:53.862Z,26.08
2023-05-13T15:28:56.303Z,26.42
2023-05-13T15:33:58.712Z,26.65
2023-05-13T15:39:02.883Z,26.53
2023-05-13T15:44:05.666Z,26.45
2023-05-13T15:49:08.260Z,26.36
2023-05-13T15:54:10.868Z,26.43
2023-05-13T15:59:13.449Z,26.84
2023-05-13T16:04:16.731Z,27.08
2023-05-13T16:09:19.329Z,26.67
2023-05-13T16:14:22.096Z,27.57
2023-05-13T16:19:24.742Z,27.62
2023-05-13T16:24:27.195Z,28.56
2023-05-13T16:29:29.832Z,28.65
2023-05-13T16:34:32.181Z,28.46
2023-05-13T16:39:34.684Z,29.17
2023-05-13T16:44:37.252Z,29.42
2023-05-13T16:49:40.276Z,29.76
2023-05-13T16:54:45.615Z,29.41
2023-05-13T16:59:48.471Z,30.04
2023-05-13T17:04:51.754Z,30.72
2023-05-13T17:09:54.223Z,30.95
2023-05-13T17:14:56.922Z,31.48
2023-05-13T17:19:59.453Z,31.98
2023-05-13T17:25:02.087Z,31.76
2023-05-13T17:30:06.579Z,32.36
2023-05-13T17:35:10.049Z,32.68
2023-05-13T17:40:13.003Z,33.23
2023-05-13T17:45:15.556Z,33.64
2023-05-13T17:50:18.877Z,33.87
2023-05-13T17:55:21.436Z,34.51
2023-05-13T18:00:25.475Z,35.09
2023-05-13T18:05:28.139Z,35.06
2023-05-13T18:10:30.791Z,35.67
2023-05-13T18:15:33.493Z,36.25
2023-05-13T18:20:38.305Z,36.77
2023-05-13T18:25:52.462Z,36.88
2023-05-13T18:31:01.037Z,37.96
2023-05-13T18:36:03.689Z,38.09
2023-05-13T18:41:07.159Z,38.36
2023-05-13T18:46:10.051Z,38.57
2023-05-13T18:51:12.609Z,39.19
2023-05-13T18:56:15.293Z,38.88
2023-05-13T19:01:17.996Z,39.48
2023-05-13T19:06:20.786Z,39.52
2023-05-13T19:11:23.546Z,39.77
2023-05-13T19:16:26.706Z,40.02
2023-05-13T19:21:29.417Z,40.36
2023-05-13T19:26:31.969Z,40.44
2023-05-13T19:31:35.881Z,40.08
2023-05-13T19:36:38.863Z,40.25
2023-05-13T19:41:41.425Z,40.53
2023-05-13T19:46:44.113Z,40.65
2023-05-13T19:51:47.020Z,41.52
2023-05-13T19:56:49.508Z,41.74
2023-05-13T20:01:52.330Z,41.94
2023-05-13T20:06:56.961Z,41.88
2023-05-13T20:12:00.264Z,42.21
2023-05-13T20:17:02.776Z,42.41
2023-05-13T20:22:05.492Z,42.23
2023-05-13T20:27:07.844Z,41.82
2023-05-13T20:32:10.975Z,42.51
2023-05-13T20:37:17.129Z,42.12
2023-05-13T20:42:21.993Z,42.30
2023-05-13T20:47:24.456Z,42.55
2023-05-13T20:52:26.946Z,42.11
2023-05-13T20:57:29.374Z,42.22
2023-05-13T21:02:31.920Z,42.23
2023-05-13T21:07:35.719Z,42.70
2023-05-13T21:12:38.233Z,42.19
2023-05-13T21:17:41.195Z,42.61
2023-05-13T21:22:43.709Z,42.70
2023-05-13T21:27:46.388Z,42.75
2023-05-13T21:32:48.922Z,42.95
2023-05-13T21:37:56.097Z,43.05
2023-05-13T21:43:03.878Z,42.87
2023-05-13T21:48:07.280Z,43.23
2023-05-13T21:53:10.176Z,43.06
2023-05-13T21:58:12.870Z,43.55
2023-05-13T22:03:15.456Z,43.87
2023-05-13T22:08:18.145Z,43.92
2023-05-13T22:13:21.958Z,44.00
2023-05-13T22:18:24.881Z,44.00
2023-05-13T22:23:27.814Z,44.06
2023-05-13T22:28:30.219Z,44.35
2023-05-13T22:33:32.673Z,44.65
2023-05-13T22:38:35.816Z,44.60
2023-05-13T22:43:38.702Z,44.54
2023-05-13T22:48:41.214Z,44.62
2023-05-13T22:53:43.655Z,44.88
2023-05-13T22:58:46.693Z,45.28
2023-05-13T23:03:49.126Z,45.29
2023-05-13T23:08:51.672Z,45.51
2023-05-13T23:13:54.069Z,45.93
2023-05-13T23:18:56.726Z,46.50
2023-05-13T23:23:59.893Z,46.45
2023-05-13T23:29:02.292Z,46.64
2023-05-13T23:34:04.726Z,46.85
2023-05-13T23:39:07.214Z,46.95
2023-05-13T23:44:09.590Z,47.06
2023-05-13T23:49:12.307Z,47.05
2023-05-13T23:54:14.927Z,47.61
2023-05-13T23:59:17.422Z,47.65
